sensor_id;sensor_type;location;lat;lon;timestamp;P1;durP1;ratioP1;P2;durP2;ratioP2
6821;SDS011;3449;48.728;8.968;2024-01-30T00:00:37;14.90;;;6.70;;
6821;SDS011;3449;48.728;8.968;2024-01-30T00:03:04;10.93;;;6.57;;
6821;SDS011;3449;48.728;8.968;2024-01-30T00:05:31;13.17;;;6.87;;
6821;SDS011;3449;48.728;8.968;2024-01-30T00:07:58;10.83;;;7.00;;
6821;SDS011;3449;48.728;8.968;2024-01-30T00:10:25;13.70;;;6.60;;
6821;SDS011;3449;48.728;8.968;2024-01-30T00:12:51;13.23;;;7.13;;
6821;SDS011;3449;48.728;8.968;2024-01-30T00:15:20;15.53;;;8.00;;
6821;SDS011;3449;48.728;8.968;2024-01-30T00:17:46;12.20;;;6.40;;
6821;SDS011;3449;48.728;8.968;2024-01-30T00:20:14;10.43;;;6.37;;
6821;SDS011;3449;48.728;8.968;2024-01-30T00:22:40;14.60;;;7.03;;
6821;SDS011;3449;48.728;8.968;2024-01-30T00:25:07;15.60;;;6.30;;
6821;SDS011;3449;48.728;8.968;2024-01-30T00:27:34;13.30;;;6.00;;
6821;SDS011;3449;48.728;8.968;2024-01-30T00:30:01;12.13;;;6.67;;
6821;SDS011;3449;48.728;8.968;2024-01-30T00:32:30;11.13;;;5.70;;
6821;SDS011;3449;48.728;8.968;2024-01-30T00:34:56;13.47;;;6.53;;
6821;SDS011;3449;48.728;8.968;2024-01-30T00:37:23;10.63;;;5.13;;
6821;SDS011;3449;48.728;8.968;2024-01-30T00:39:50;12.97;;;6.67;;
6821;SDS011;3449;48.728;8.968;2024-01-30T00:42:17;10.20;;;6.20;;
6821;SDS011;3449;48.728;8.968;2024-01-30T00:44:44;11.47;;;6.50;;
6821;SDS011;3449;48.728;8.968;2024-01-30T00:47:11;12.60;;;8.17;;
6821;SDS011;3449;48.728;8.968;2024-01-30T00:49:39;12.17;;;7.77;;
6821;SDS011;3449;48.728;8.968;2024-01-30T00:52:06;17.77;;;7.33;;
6821;SDS011;3449;48.728;8.968;2024-01-30T00:54:33;9.57;;;5.93;;
6821;SDS011;3449;48.728;8.968;2024-01-30T00:56:59;11.57;;;5.83;;
6821;SDS011;3449;48.728;8.968;2024-01-30T00:59:26;17.23;;;6.80;;
6821;SDS011;3449;48.728;8.968;2024-01-30T01:01:53;13.20;;;6.63;;
6821;SDS011;3449;48.728;8.968;2024-01-30T01:04:20;14.60;;;6.67;;
6821;SDS011;3449;48.728;8.968;2024-01-30T01:06:48;11.77;;;7.03;;
6821;SDS011;3449;48.728;8.968;2024-01-30T01:09:15;14.50;;;6.90;;
6821;SDS011;3449;48.728;8.968;2024-01-30T01:11:42;16.03;;;7.63;;
6821;SDS011;3449;48.728;8.968;2024-01-30T01:14:09;14.57;;;6.77;;
6821;SDS011;3449;48.728;8.968;2024-01-30T01:16:36;10.10;;;6.50;;
6821;SDS011;3449;48.728;8.968;2024-01-30T01:19:03;14.90;;;8.07;;
6821;SDS011;3449;48.728;8.968;2024-01-30T01:21:29;13.30;;;6.10;;
6821;SDS011;3449;48.728;8.968;2024-01-30T01:23:57;12.57;;;6.50;;
6821;SDS011;3449;48.728;8.968;2024-01-30T01:26:24;10.27;;;5.90;;
6821;SDS011;3449;48.728;8.968;2024-01-30T01:28:51;8.93;;;5.50;;
6821;SDS011;3449;48.728;8.968;2024-01-30T01:31:18;9.40;;;6.10;;
6821;SDS011;3449;48.728;8.968;2024-01-30T01:33:47;14.70;;;7.67;;
6821;SDS011;3449;48.728;8.968;2024-01-30T01:36:14;14.07;;;6.07;;
6821;SDS011;3449;48.728;8.968;2024-01-30T01:38:41;16.10;;;7.30;;
6821;SDS011;3449;48.728;8.968;2024-01-30T01:41:09;16.57;;;6.40;;
6821;SDS011;3449;48.728;8.968;2024-01-30T01:43:36;11.50;;;5.60;;
6821;SDS011;3449;48.728;8.968;2024-01-30T01:46:04;15.67;;;6.30;;
6821;SDS011;3449;48.728;8.968;2024-01-30T01:48:31;14.73;;;6.60;;
6821;SDS011;3449;48.728;8.968;2024-01-30T01:50:58;12.13;;;6.80;;
6821;SDS011;3449;48.728;8.968;2024-01-30T01:53:25;15.50;;;6.37;;
6821;SDS011;3449;48.728;8.968;2024-01-30T01:55:52;17.67;;;6.83;;
6821;SDS011;3449;48.728;8.968;2024-01-30T01:58:22;11.53;;;6.40;;
6821;SDS011;3449;48.728;8.968;2024-01-30T02:00:53;11.63;;;5.70;;
6821;SDS011;3449;48.728;8.968;2024-01-30T02:03:22;11.77;;;6.60;;
6821;SDS011;3449;48.728;8.968;2024-01-30T02:05:49;10.60;;;6.13;;
6821;SDS011;3449;48.728;8.968;2024-01-30T02:08:17;13.20;;;6.30;;
6821;SDS011;3449;48.728;8.968;2024-01-30T02:10:43;14.97;;;7.00;;
6821;SDS011;3449;48.728;8.968;2024-01-30T02:13:10;11.90;;;6.70;;
6821;SDS011;3449;48.728;8.968;2024-01-30T02:15:39;11.30;;;6.67;;
6821;SDS011;3449;48.728;8.968;2024-01-30T02:18:05;11.20;;;6.20;;
6821;SDS011;3449;48.728;8.968;2024-01-30T02:20:32;14.20;;;6.83;;
6821;SDS011;3449;48.728;8.968;2024-01-30T02:23:03;11.20;;;6.10;;
6821;SDS011;3449;48.728;8.968;2024-01-30T02:25:31;10.00;;;5.83;;
6821;SDS011;3449;48.728;8.968;2024-01-30T02:27:59;10.60;;;6.80;;
6821;SDS011;3449;48.728;8.968;2024-01-30T02:30:26;21.10;;;7.13;;
6821;SDS011;3449;48.728;8.968;2024-01-30T02:32:52;9.47;;;6.40;;
6821;SDS011;3449;48.728;8.968;2024-01-30T02:35:19;13.63;;;6.50;;
6821;SDS011;3449;48.728;8.968;2024-01-30T02:37:46;10.67;;;6.10;;
6821;SDS011;3449;48.728;8.968;2024-01-30T02:40:15;13.20;;;6.30;;
6821;SDS011;3449;48.728;8.968;2024-01-30T02:42:41;11.63;;;6.00;;
6821;SDS011;3449;48.728;8.968;2024-01-30T02:45:09;9.60;;;6.30;;
6821;SDS011;3449;48.728;8.968;2024-01-30T02:47:37;11.20;;;6.83;;
6821;SDS011;3449;48.728;8.968;2024-01-30T02:50:05;10.37;;;5.70;;
6821;SDS011;3449;48.728;8.968;2024-01-30T02:52:32;15.60;;;7.23;;
6821;SDS011;3449;48.728;8.968;2024-01-30T02:54:59;13.30;;;7.10;;
6821;SDS011;3449;48.728;8.968;2024-01-30T02:57:27;10.37;;;6.07;;
6821;SDS011;3449;48.728;8.968;2024-01-30T02:59:54;11.47;;;6.63;;
6821;SDS011;3449;48.728;8.968;2024-01-30T03:02:21;15.23;;;6.57;;
6821;SDS011;3449;48.728;8.968;2024-01-30T03:04:48;12.00;;;5.53;;
6821;SDS011;3449;48.728;8.968;2024-01-30T03:07:15;12.90;;;6.50;;
6821;SDS011;3449;48.728;8.968;2024-01-30T03:09:42;12.37;;;6.23;;
6821;SDS011;3449;48.728;8.968;2024-01-30T03:12:09;9.50;;;5.90;;
6821;SDS011;3449;48.728;8.968;2024-01-30T03:14:37;8.00;;;4.80;;
6821;SDS011;3449;48.728;8.968;2024-01-30T03:17:04;12.73;;;6.87;;
6821;SDS011;3449;48.728;8.968;2024-01-30T03:19:31;13.67;;;6.80;;
6821;SDS011;3449;48.728;8.968;2024-01-30T03:21:58;14.37;;;7.27;;
6821;SDS011;3449;48.728;8.968;2024-01-30T03:24:24;12.97;;;6.80;;
6821;SDS011;3449;48.728;8.968;2024-01-30T03:26:51;11.17;;;5.87;;
6821;SDS011;3449;48.728;8.968;2024-01-30T03:29:18;14.67;;;6.40;;
6821;SDS011;3449;48.728;8.968;2024-01-30T03:31:46;11.20;;;6.60;;
6821;SDS011;3449;48.728;8.968;2024-01-30T03:34:13;12.07;;;6.40;;
6821;SDS011;3449;48.728;8.968;2024-01-30T03:36:40;11.27;;;5.63;;
6821;SDS011;3449;48.728;8.968;2024-01-30T03:39:07;10.43;;;6.50;;
6821;SDS011;3449;48.728;8.968;2024-01-30T03:41:34;13.47;;;6.70;;
6821;SDS011;3449;48.728;8.968;2024-01-30T03:44:01;13.40;;;7.30;;
6821;SDS011;3449;48.728;8.968;2024-01-30T03:46:28;9.10;;;7.00;;
6821;SDS011;3449;48.728;8.968;2024-01-30T03:48:56;13.40;;;6.80;;
6821;SDS011;3449;48.728;8.968;2024-01-30T03:51:23;11.17;;;6.70;;
6821;SDS011;3449;48.728;8.968;2024-01-30T03:53:50;11.73;;;7.13;;
6821;SDS011;3449;48.728;8.968;2024-01-30T03:56:16;11.60;;;6.80;;
6821;SDS011;3449;48.728;8.968;2024-01-30T03:58:43;8.87;;;6.23;;
6821;SDS011;3449;48.728;8.968;2024-01-30T04:01:12;14.30;;;6.83;;
6821;SDS011;3449;48.728;8.968;2024-01-30T04:03:40;15.07;;;6.40;;
6821;SDS011;3449;48.728;8.968;2024-01-30T04:06:08;18.43;;;6.40;;
6821;SDS011;3449;48.728;8.968;2024-01-30T04:08:35;9.70;;;5.37;;
6821;SDS011;3449;48.728;8.968;2024-01-30T04:11:03;12.77;;;6.13;;
6821;SDS011;3449;48.728;8.968;2024-01-30T04:13:31;11.30;;;5.77;;
6821;SDS011;3449;48.728;8.968;2024-01-30T04:15:58;13.60;;;7.13;;
6821;SDS011;3449;48.728;8.968;2024-01-30T04:18:26;11.40;;;5.83;;
6821;SDS011;3449;48.728;8.968;2024-01-30T04:20:53;10.23;;;5.87;;
6821;SDS011;3449;48.728;8.968;2024-01-30T04:23:22;11.20;;;6.50;;
6821;SDS011;3449;48.728;8.968;2024-01-30T04:25:48;8.43;;;5.50;;
6821;SDS011;3449;48.728;8.968;2024-01-30T04:28:15;11.57;;;6.10;;
6821;SDS011;3449;48.728;8.968;2024-01-30T04:30:42;12.40;;;6.37;;
6821;SDS011;3449;48.728;8.968;2024-01-30T04:33:10;12.27;;;6.13;;
6821;SDS011;3449;48.728;8.968;2024-01-30T04:35:37;8.50;;;4.90;;
6821;SDS011;3449;48.728;8.968;2024-01-30T04:38:03;14.50;;;6.90;;
6821;SDS011;3449;48.728;8.968;2024-01-30T04:40:32;11.50;;;5.87;;
6821;SDS011;3449;48.728;8.968;2024-01-30T04:42:58;11.07;;;6.27;;
6821;SDS011;3449;48.728;8.968;2024-01-30T04:45:25;12.27;;;5.90;;
6821;SDS011;3449;48.728;8.968;2024-01-30T04:47:52;15.10;;;5.57;;
6821;SDS011;3449;48.728;8.968;2024-01-30T04:50:19;11.03;;;5.43;;
6821;SDS011;3449;48.728;8.968;2024-01-30T04:52:46;10.30;;;5.57;;
6821;SDS011;3449;48.728;8.968;2024-01-30T04:55:12;9.20;;;5.80;;
6821;SDS011;3449;48.728;8.968;2024-01-30T04:57:41;11.33;;;5.37;;
6821;SDS011;3449;48.728;8.968;2024-01-30T05:00:08;9.90;;;5.60;;
6821;SDS011;3449;48.728;8.968;2024-01-30T05:02:36;11.70;;;5.90;;
6821;SDS011;3449;48.728;8.968;2024-01-30T05:05:03;15.53;;;6.13;;
6821;SDS011;3449;48.728;8.968;2024-01-30T05:07:30;12.43;;;6.17;;
6821;SDS011;3449;48.728;8.968;2024-01-30T05:09:57;9.20;;;6.03;;
6821;SDS011;3449;48.728;8.968;2024-01-30T05:12:24;8.13;;;5.73;;
6821;SDS011;3449;48.728;8.968;2024-01-30T05:14:52;10.87;;;6.07;;
6821;SDS011;3449;48.728;8.968;2024-01-30T05:17:18;10.23;;;5.83;;
6821;SDS011;3449;48.728;8.968;2024-01-30T05:19:45;10.30;;;6.20;;
6821;SDS011;3449;48.728;8.968;2024-01-30T05:22:12;12.17;;;6.40;;
6821;SDS011;3449;48.728;8.968;2024-01-30T05:24:40;17.60;;;7.33;;
6821;SDS011;3449;48.728;8.968;2024-01-30T05:27:07;14.47;;;6.30;;
6821;SDS011;3449;48.728;8.968;2024-01-30T05:29:34;9.77;;;6.43;;
6821;SDS011;3449;48.728;8.968;2024-01-30T05:32:02;9.43;;;6.10;;
6821;SDS011;3449;48.728;8.968;2024-01-30T05:34:30;10.80;;;6.13;;
6821;SDS011;3449;48.728;8.968;2024-01-30T05:36:57;16.77;;;7.07;;
6821;SDS011;3449;48.728;8.968;2024-01-30T05:39:24;10.20;;;5.80;;
6821;SDS011;3449;48.728;8.968;2024-01-30T05:41:50;10.60;;;6.40;;
6821;SDS011;3449;48.728;8.968;2024-01-30T05:44:17;12.70;;;7.40;;
6821;SDS011;3449;48.728;8.968;2024-01-30T05:46:44;12.80;;;7.53;;
6821;SDS011;3449;48.728;8.968;2024-01-30T05:49:12;20.93;;;8.17;;
6821;SDS011;3449;48.728;8.968;2024-01-30T05:51:39;16.07;;;7.80;;
6821;SDS011;3449;48.728;8.968;2024-01-30T05:54:06;11.10;;;7.97;;
6821;SDS011;3449;48.728;8.968;2024-01-30T05:56:33;17.90;;;10.90;;
6821;SDS011;3449;48.728;8.968;2024-01-30T05:59:00;14.90;;;8.43;;
6821;SDS011;3449;48.728;8.968;2024-01-30T06:01:27;14.37;;;8.40;;
6821;SDS011;3449;48.728;8.968;2024-01-30T06:03:54;13.63;;;10.00;;
6821;SDS011;3449;48.728;8.968;2024-01-30T06:06:22;12.97;;;8.10;;
6821;SDS011;3449;48.728;8.968;2024-01-30T06:08:49;13.27;;;7.70;;
6821;SDS011;3449;48.728;8.968;2024-01-30T06:11:16;10.17;;;6.37;;
6821;SDS011;3449;48.728;8.968;2024-01-30T06:13:43;11.23;;;6.20;;
6821;SDS011;3449;48.728;8.968;2024-01-30T06:16:10;13.50;;;6.40;;
6821;SDS011;3449;48.728;8.968;2024-01-30T06:18:37;11.90;;;6.50;;
6821;SDS011;3449;48.728;8.968;2024-01-30T06:21:04;17.50;;;6.53;;
6821;SDS011;3449;48.728;8.968;2024-01-30T06:23:33;11.67;;;6.30;;
6821;SDS011;3449;48.728;8.968;2024-01-30T06:26:00;14.10;;;6.23;;
6821;SDS011;3449;48.728;8.968;2024-01-30T06:28:26;9.80;;;5.43;;
6821;SDS011;3449;48.728;8.968;2024-01-30T06:30:53;13.10;;;6.00;;
6821;SDS011;3449;48.728;8.968;2024-01-30T06:33:20;10.17;;;6.20;;
6821;SDS011;3449;48.728;8.968;2024-01-30T06:35:47;9.30;;;5.87;;
6821;SDS011;3449;48.728;8.968;2024-01-30T06:38:14;10.00;;;6.47;;
6821;SDS011;3449;48.728;8.968;2024-01-30T06:40:42;10.70;;;6.40;;
6821;SDS011;3449;48.728;8.968;2024-01-30T06:43:09;10.83;;;6.30;;
6821;SDS011;3449;48.728;8.968;2024-01-30T06:45:36;11.40;;;7.03;;
6821;SDS011;3449;48.728;8.968;2024-01-30T06:48:03;10.33;;;5.73;;
6821;SDS011;3449;48.728;8.968;2024-01-30T06:50:31;12.50;;;6.07;;
6821;SDS011;3449;48.728;8.968;2024-01-30T06:52:58;13.43;;;6.83;;
6821;SDS011;3449;48.728;8.968;2024-01-30T06:55:24;14.00;;;7.40;;
6821;SDS011;3449;48.728;8.968;2024-01-30T06:57:52;12.23;;;5.97;;
6821;SDS011;3449;48.728;8.968;2024-01-30T07:00:19;13.53;;;7.00;;
6821;SDS011;3449;48.728;8.968;2024-01-30T07:02:47;13.27;;;6.60;;
6821;SDS011;3449;48.728;8.968;2024-01-30T07:05:14;11.90;;;5.80;;
6821;SDS011;3449;48.728;8.968;2024-01-30T07:07:42;12.37;;;6.40;;
6821;SDS011;3449;48.728;8.968;2024-01-30T07:10:09;14.27;;;6.43;;
6821;SDS011;3449;48.728;8.968;2024-01-30T07:12:36;16.07;;;6.93;;
6821;SDS011;3449;48.728;8.968;2024-01-30T07:15:05;12.90;;;7.40;;
6821;SDS011;3449;48.728;8.968;2024-01-30T07:17:33;12.50;;;7.10;;
6821;SDS011;3449;48.728;8.968;2024-01-30T07:20:00;11.40;;;6.70;;
6821;SDS011;3449;48.728;8.968;2024-01-30T07:22:28;19.77;;;7.37;;
6821;SDS011;3449;48.728;8.968;2024-01-30T07:24:55;13.57;;;5.87;;
6821;SDS011;3449;48.728;8.968;2024-01-30T07:27:22;7.30;;;5.20;;
6821;SDS011;3449;48.728;8.968;2024-01-30T07:29:49;11.27;;;6.27;;
6821;SDS011;3449;48.728;8.968;2024-01-30T07:32:17;11.70;;;6.70;;
6821;SDS011;3449;48.728;8.968;2024-01-30T07:34:44;10.10;;;6.20;;
6821;SDS011;3449;48.728;8.968;2024-01-30T07:37:11;14.53;;;6.53;;
6821;SDS011;3449;48.728;8.968;2024-01-30T07:39:40;11.33;;;5.97;;
6821;SDS011;3449;48.728;8.968;2024-01-30T07:42:07;14.07;;;6.17;;
6821;SDS011;3449;48.728;8.968;2024-01-30T07:44:34;9.27;;;6.10;;
6821;SDS011;3449;48.728;8.968;2024-01-30T07:47:01;12.90;;;6.03;;
6821;SDS011;3449;48.728;8.968;2024-01-30T07:49:30;11.50;;;6.73;;
6821;SDS011;3449;48.728;8.968;2024-01-30T07:51:57;9.03;;;5.40;;
6821;SDS011;3449;48.728;8.968;2024-01-30T07:54:26;11.67;;;6.17;;
6821;SDS011;3449;48.728;8.968;2024-01-30T07:56:58;11.77;;;6.57;;
6821;SDS011;3449;48.728;8.968;2024-01-30T07:59:25;13.23;;;7.90;;
6821;SDS011;3449;48.728;8.968;2024-01-30T08:01:52;12.10;;;7.67;;
6821;SDS011;3449;48.728;8.968;2024-01-30T08:04:18;13.73;;;7.40;;
6821;SDS011;3449;48.728;8.968;2024-01-30T08:06:47;15.67;;;7.50;;
6821;SDS011;3449;48.728;8.968;2024-01-30T08:09:13;16.30;;;8.60;;
6821;SDS011;3449;48.728;8.968;2024-01-30T08:11:40;17.03;;;8.93;;
6821;SDS011;3449;48.728;8.968;2024-01-30T08:14:07;11.30;;;7.30;;
6821;SDS011;3449;48.728;8.968;2024-01-30T08:16:34;15.33;;;6.70;;
6821;SDS011;3449;48.728;8.968;2024-01-30T08:19:01;12.37;;;5.53;;
6821;SDS011;3449;48.728;8.968;2024-01-30T08:21:28;9.57;;;6.10;;
6821;SDS011;3449;48.728;8.968;2024-01-30T08:23:57;16.17;;;6.20;;
6821;SDS011;3449;48.728;8.968;2024-01-30T08:26:23;12.10;;;5.20;;
6821;SDS011;3449;48.728;8.968;2024-01-30T08:28:51;12.30;;;5.77;;
6821;SDS011;3449;48.728;8.968;2024-01-30T08:31:18;9.60;;;5.73;;
6821;SDS011;3449;48.728;8.968;2024-01-30T08:33:45;14.80;;;5.87;;
6821;SDS011;3449;48.728;8.968;2024-01-30T08:36:12;21.47;;;5.33;;
6821;SDS011;3449;48.728;8.968;2024-01-30T08:38:39;13.13;;;5.30;;
6821;SDS011;3449;48.728;8.968;2024-01-30T08:41:08;13.83;;;6.00;;
6821;SDS011;3449;48.728;8.968;2024-01-30T08:43:35;14.90;;;6.13;;
6821;SDS011;3449;48.728;8.968;2024-01-30T08:46:02;22.40;;;6.17;;
6821;SDS011;3449;48.728;8.968;2024-01-30T08:48:29;19.73;;;5.50;;
6821;SDS011;3449;48.728;8.968;2024-01-30T08:50:56;17.20;;;5.53;;
6821;SDS011;3449;48.728;8.968;2024-01-30T08:53:23;14.83;;;5.73;;
6821;SDS011;3449;48.728;8.968;2024-01-30T08:55:50;9.93;;;5.00;;
6821;SDS011;3449;48.728;8.968;2024-01-30T08:58:18;10.67;;;4.90;;
6821;SDS011;3449;48.728;8.968;2024-01-30T09:00:45;9.00;;;5.17;;
6821;SDS011;3449;48.728;8.968;2024-01-30T09:03:12;12.30;;;5.10;;
6821;SDS011;3449;48.728;8.968;2024-01-30T09:05:38;13.40;;;4.73;;
6821;SDS011;3449;48.728;8.968;2024-01-30T09:08:05;15.33;;;5.73;;
6821;SDS011;3449;48.728;8.968;2024-01-30T09:10:32;11.73;;;5.67;;
6821;SDS011;3449;48.728;8.968;2024-01-30T09:12:59;8.77;;;5.47;;
6821;SDS011;3449;48.728;8.968;2024-01-30T09:15:27;12.30;;;5.30;;
6821;SDS011;3449;48.728;8.968;2024-01-30T09:17:54;13.10;;;5.23;;
6821;SDS011;3449;48.728;8.968;2024-01-30T09:20:21;8.83;;;4.70;;
6821;SDS011;3449;48.728;8.968;2024-01-30T09:22:48;8.13;;;4.40;;
6821;SDS011;3449;48.728;8.968;2024-01-30T09:25:15;9.00;;;4.73;;
6821;SDS011;3449;48.728;8.968;2024-01-30T09:27:43;8.10;;;4.50;;
6821;SDS011;3449;48.728;8.968;2024-01-30T09:30:10;11.60;;;4.70;;
6821;SDS011;3449;48.728;8.968;2024-01-30T09:32:40;7.67;;;4.50;;
6821;SDS011;3449;48.728;8.968;2024-01-30T09:35:08;6.47;;;4.20;;
6821;SDS011;3449;48.728;8.968;2024-01-30T09:37:35;10.03;;;4.53;;
6821;SDS011;3449;48.728;8.968;2024-01-30T09:40:02;13.13;;;4.90;;
6821;SDS011;3449;48.728;8.968;2024-01-30T09:42:33;13.17;;;4.57;;
6821;SDS011;3449;48.728;8.968;2024-01-30T09:45:01;12.07;;;5.40;;
6821;SDS011;3449;48.728;8.968;2024-01-30T09:47:30;10.27;;;5.07;;
6821;SDS011;3449;48.728;8.968;2024-01-30T09:49:59;15.73;;;4.53;;
6821;SDS011;3449;48.728;8.968;2024-01-30T09:52:28;6.50;;;4.50;;
6821;SDS011;3449;48.728;8.968;2024-01-30T09:54:55;10.57;;;4.70;;
6821;SDS011;3449;48.728;8.968;2024-01-30T09:57:24;10.27;;;5.40;;
6821;SDS011;3449;48.728;8.968;2024-01-30T09:59:51;7.63;;;5.07;;
6821;SDS011;3449;48.728;8.968;2024-01-30T10:02:19;6.87;;;4.67;;
6821;SDS011;3449;48.728;8.968;2024-01-30T10:04:47;13.00;;;5.20;;
6821;SDS011;3449;48.728;8.968;2024-01-30T10:07:16;9.80;;;5.47;;
6821;SDS011;3449;48.728;8.968;2024-01-30T10:09:44;8.67;;;4.17;;
6821;SDS011;3449;48.728;8.968;2024-01-30T10:12:11;10.93;;;4.90;;
6821;SDS011;3449;48.728;8.968;2024-01-30T10:14:38;16.20;;;5.43;;
6821;SDS011;3449;48.728;8.968;2024-01-30T10:17:06;9.70;;;4.63;;
6821;SDS011;3449;48.728;8.968;2024-01-30T10:19:33;9.37;;;5.40;;
6821;SDS011;3449;48.728;8.968;2024-01-30T10:22:00;11.33;;;4.70;;
6821;SDS011;3449;48.728;8.968;2024-01-30T10:24:28;7.37;;;5.10;;
6821;SDS011;3449;48.728;8.968;2024-01-30T10:26:56;11.00;;;5.03;;
6821;SDS011;3449;48.728;8.968;2024-01-30T10:29:23;6.47;;;4.67;;
6821;SDS011;3449;48.728;8.968;2024-01-30T10:31:59;6.53;;;4.00;;
6821;SDS011;3449;48.728;8.968;2024-01-30T10:34:27;13.00;;;4.17;;
6821;SDS011;3449;48.728;8.968;2024-01-30T10:36:58;7.60;;;3.90;;
6821;SDS011;3449;48.728;8.968;2024-01-30T10:39:34;8.00;;;4.17;;
6821;SDS011;3449;48.728;8.968;2024-01-30T10:42:04;7.40;;;3.00;;
6821;SDS011;3449;48.728;8.968;2024-01-30T10:44:34;7.53;;;4.10;;
6821;SDS011;3449;48.728;8.968;2024-01-30T10:47:11;12.30;;;4.30;;
6821;SDS011;3449;48.728;8.968;2024-01-30T10:49:39;5.67;;;3.37;;
6821;SDS011;3449;48.728;8.968;2024-01-30T10:52:07;9.07;;;3.63;;
6821;SDS011;3449;48.728;8.968;2024-01-30T10:54:38;7.07;;;3.33;;
6821;SDS011;3449;48.728;8.968;2024-01-30T10:57:09;4.97;;;3.70;;
6821;SDS011;3449;48.728;8.968;2024-01-30T10:59:36;6.27;;;3.47;;
6821;SDS011;3449;48.728;8.968;2024-01-30T11:02:03;6.67;;;4.37;;
6821;SDS011;3449;48.728;8.968;2024-01-30T11:04:35;5.00;;;3.23;;
6821;SDS011;3449;48.728;8.968;2024-01-30T11:07:02;7.97;;;3.73;;
6821;SDS011;3449;48.728;8.968;2024-01-30T11:09:41;6.33;;;3.37;;
6821;SDS011;3449;48.728;8.968;2024-01-30T11:12:15;6.23;;;3.27;;
6821;SDS011;3449;48.728;8.968;2024-01-30T11:14:42;6.67;;;3.03;;
6821;SDS011;3449;48.728;8.968;2024-01-30T11:17:09;3.87;;;3.00;;
6821;SDS011;3449;48.728;8.968;2024-01-30T11:19:37;4.03;;;2.90;;
6821;SDS011;3449;48.728;8.968;2024-01-30T11:22:06;4.40;;;2.80;;
6821;SDS011;3449;48.728;8.968;2024-01-30T11:24:36;4.27;;;3.37;;
6821;SDS011;3449;48.728;8.968;2024-01-30T11:27:08;12.53;;;3.60;;
6821;SDS011;3449;48.728;8.968;2024-01-30T11:29:35;4.10;;;3.00;;
6821;SDS011;3449;48.728;8.968;2024-01-30T11:32:02;6.23;;;2.90;;
6821;SDS011;3449;48.728;8.968;2024-01-30T11:34:30;9.13;;;4.30;;
6821;SDS011;3449;48.728;8.968;2024-01-30T11:36:59;7.40;;;3.17;;
6821;SDS011;3449;48.728;8.968;2024-01-30T11:39:33;6.40;;;3.50;;
6821;SDS011;3449;48.728;8.968;2024-01-30T11:42:04;8.40;;;3.60;;
6821;SDS011;3449;48.728;8.968;2024-01-30T11:44:33;8.47;;;3.60;;
6821;SDS011;3449;48.728;8.968;2024-01-30T11:47:00;4.70;;;2.87;;
6821;SDS011;3449;48.728;8.968;2024-01-30T11:49:28;4.07;;;2.40;;
6821;SDS011;3449;48.728;8.968;2024-01-30T11:51:55;2.47;;;2.00;;
6821;SDS011;3449;48.728;8.968;2024-01-30T11:54:22;4.53;;;2.77;;
6821;SDS011;3449;48.728;8.968;2024-01-30T11:56:49;4.83;;;2.50;;
6821;SDS011;3449;48.728;8.968;2024-01-30T11:59:17;7.27;;;2.90;;
6821;SDS011;3449;48.728;8.968;2024-01-30T12:01:44;4.67;;;3.77;;
6821;SDS011;3449;48.728;8.968;2024-01-30T12:04:11;11.90;;;3.70;;
6821;SDS011;3449;48.728;8.968;2024-01-30T12:06:38;13.60;;;4.53;;
6821;SDS011;3449;48.728;8.968;2024-01-30T12:09:05;22.03;;;10.07;;
6821;SDS011;3449;48.728;8.968;2024-01-30T12:11:43;16.47;;;8.43;;
6821;SDS011;3449;48.728;8.968;2024-01-30T12:14:11;37.73;;;13.97;;
6821;SDS011;3449;48.728;8.968;2024-01-30T12:16:40;12.90;;;7.50;;
6821;SDS011;3449;48.728;8.968;2024-01-30T12:19:07;17.50;;;7.60;;
6821;SDS011;3449;48.728;8.968;2024-01-30T12:21:34;13.67;;;7.20;;
6821;SDS011;3449;48.728;8.968;2024-01-30T12:24:01;9.40;;;4.43;;
6821;SDS011;3449;48.728;8.968;2024-01-30T12:26:29;15.17;;;7.17;;
6821;SDS011;3449;48.728;8.968;2024-01-30T12:28:56;4.93;;;2.97;;
6821;SDS011;3449;48.728;8.968;2024-01-30T12:31:27;5.67;;;3.70;;
6821;SDS011;3449;48.728;8.968;2024-01-30T12:33:55;6.67;;;3.20;;
6821;SDS011;3449;48.728;8.968;2024-01-30T12:36:22;4.33;;;2.27;;
6821;SDS011;3449;48.728;8.968;2024-01-30T12:38:49;3.70;;;2.40;;
6821;SDS011;3449;48.728;8.968;2024-01-30T12:41:16;2.57;;;2.37;;
6821;SDS011;3449;48.728;8.968;2024-01-30T12:43:43;2.90;;;2.10;;
6821;SDS011;3449;48.728;8.968;2024-01-30T12:46:10;2.40;;;2.20;;
6821;SDS011;3449;48.728;8.968;2024-01-30T12:48:37;3.57;;;2.53;;
6821;SDS011;3449;48.728;8.968;2024-01-30T12:51:05;4.27;;;2.90;;
6821;SDS011;3449;48.728;8.968;2024-01-30T12:53:32;3.53;;;2.10;;
6821;SDS011;3449;48.728;8.968;2024-01-30T12:55:59;4.27;;;2.33;;
6821;SDS011;3449;48.728;8.968;2024-01-30T12:58:26;11.23;;;2.87;;
6821;SDS011;3449;48.728;8.968;2024-01-30T13:00:53;3.50;;;3.10;;
6821;SDS011;3449;48.728;8.968;2024-01-30T13:03:20;4.80;;;2.60;;
6821;SDS011;3449;48.728;8.968;2024-01-30T13:05:48;2.83;;;2.33;;
6821;SDS011;3449;48.728;8.968;2024-01-30T13:08:16;6.30;;;4.50;;
6821;SDS011;3449;48.728;8.968;2024-01-30T13:10:43;6.40;;;4.60;;
6821;SDS011;3449;48.728;8.968;2024-01-30T13:13:09;6.47;;;3.40;;
6821;SDS011;3449;48.728;8.968;2024-01-30T13:15:36;5.00;;;3.17;;
6821;SDS011;3449;48.728;8.968;2024-01-30T13:18:03;3.40;;;2.50;;
6821;SDS011;3449;48.728;8.968;2024-01-30T13:20:30;3.90;;;2.40;;
6821;SDS011;3449;48.728;8.968;2024-01-30T13:22:57;4.53;;;2.50;;
6821;SDS011;3449;48.728;8.968;2024-01-30T13:25:25;8.47;;;4.97;;
6821;SDS011;3449;48.728;8.968;2024-01-30T13:27:52;4.70;;;3.07;;
6821;SDS011;3449;48.728;8.968;2024-01-30T13:30:19;3.80;;;2.13;;
6821;SDS011;3449;48.728;8.968;2024-01-30T13:32:46;5.13;;;3.07;;
6821;SDS011;3449;48.728;8.968;2024-01-30T13:35:13;4.97;;;2.63;;
6821;SDS011;3449;48.728;8.968;2024-01-30T13:37:40;5.10;;;2.77;;
6821;SDS011;3449;48.728;8.968;2024-01-30T13:40:08;4.13;;;2.90;;
6821;SDS011;3449;48.728;8.968;2024-01-30T13:42:37;5.70;;;2.40;;
6821;SDS011;3449;48.728;8.968;2024-01-30T13:45:04;6.77;;;2.97;;
6821;SDS011;3449;48.728;8.968;2024-01-30T13:47:31;5.87;;;2.77;;
6821;SDS011;3449;48.728;8.968;2024-01-30T13:49:58;4.50;;;3.07;;
6821;SDS011;3449;48.728;8.968;2024-01-30T13:52:25;5.60;;;2.70;;
6821;SDS011;3449;48.728;8.968;2024-01-30T13:54:52;3.63;;;1.80;;
6821;SDS011;3449;48.728;8.968;2024-01-30T13:57:19;4.17;;;2.77;;
6821;SDS011;3449;48.728;8.968;2024-01-30T13:59:47;10.40;;;3.27;;
6821;SDS011;3449;48.728;8.968;2024-01-30T14:02:14;4.60;;;2.53;;
6821;SDS011;3449;48.728;8.968;2024-01-30T14:04:40;3.10;;;2.47;;
6821;SDS011;3449;48.728;8.968;2024-01-30T14:07:08;5.13;;;2.90;;
6821;SDS011;3449;48.728;8.968;2024-01-30T14:09:35;5.83;;;3.10;;
6821;SDS011;3449;48.728;8.968;2024-01-30T14:12:02;4.17;;;2.37;;
6821;SDS011;3449;48.728;8.968;2024-01-30T14:14:29;3.97;;;2.47;;
6821;SDS011;3449;48.728;8.968;2024-01-30T14:16:57;4.10;;;2.10;;
6821;SDS011;3449;48.728;8.968;2024-01-30T14:19:24;2.23;;;1.90;;
6821;SDS011;3449;48.728;8.968;2024-01-30T14:21:51;2.83;;;2.03;;
6821;SDS011;3449;48.728;8.968;2024-01-30T14:24:18;4.33;;;2.33;;
6821;SDS011;3449;48.728;8.968;2024-01-30T14:26:45;3.67;;;1.70;;
6821;SDS011;3449;48.728;8.968;2024-01-30T14:29:12;3.23;;;2.07;;
6821;SDS011;3449;48.728;8.968;2024-01-30T14:31:38;3.60;;;2.90;;
6821;SDS011;3449;48.728;8.968;2024-01-30T14:34:07;5.53;;;2.27;;
6821;SDS011;3449;48.728;8.968;2024-01-30T14:36:35;4.73;;;2.00;;
6821;SDS011;3449;48.728;8.968;2024-01-30T14:39:02;7.43;;;2.77;;
6821;SDS011;3449;48.728;8.968;2024-01-30T14:41:30;3.97;;;2.30;;
6821;SDS011;3449;48.728;8.968;2024-01-30T14:43:57;3.40;;;2.13;;
6821;SDS011;3449;48.728;8.968;2024-01-30T14:46:24;3.80;;;2.20;;
6821;SDS011;3449;48.728;8.968;2024-01-30T14:48:52;3.57;;;1.93;;
6821;SDS011;3449;48.728;8.968;2024-01-30T14:51:20;2.73;;;2.27;;
6821;SDS011;3449;48.728;8.968;2024-01-30T14:53:47;4.03;;;2.60;;
6821;SDS011;3449;48.728;8.968;2024-01-30T14:56:14;11.00;;;2.80;;
6821;SDS011;3449;48.728;8.968;2024-01-30T14:58:41;2.33;;;2.13;;
6821;SDS011;3449;48.728;8.968;2024-01-30T15:01:08;2.43;;;1.90;;
6821;SDS011;3449;48.728;8.968;2024-01-30T15:03:35;3.07;;;2.30;;
6821;SDS011;3449;48.728;8.968;2024-01-30T15:06:03;2.37;;;2.00;;
6821;SDS011;3449;48.728;8.968;2024-01-30T15:08:32;6.37;;;2.17;;